Time;durP1;ratioP1;P1;durP2;ratioP2;P2;SDS_P1;SDS_P2;PMS_P1;PMS_P2;Temp;Humidity;BMP_temperature;BMP_pressure;BME280_temperature;BME280_humidity;BME280_pressure;Samples;Min_cycle;Max_cycle;Signal;HPM_P1;HPM_P2
2023/06/15 00:00:09;;;;;;;13.70;11.80;;;;;;;11.70;84.02;98848.14;226469;1274;22518;-74
2023/06/15 00:05:15;;;;;;;15.00;12.00;;;;;;;11.68;84.19;98842.21;226308;1274;22530;-74
2023/06/15 00:10:21;;;;;;;14.40;12.90;;;;;;;11.63;84.13;98841.48;226471;1273;22561;-74
2023/06/15 00:15:27;;;;;;;14.60;13.20;;;;;;;11.59;84.22;98834.45;226281;1277;22551;-73
2023/06/15 00:20:29;;;;;;;14.00;12.60;;;;;;;11.55;84.26;98836.75;226421;1276;22541;-74
2023/06/15 00:25:33;;;;;;;13.80;12.20;;;;;;;11.50;84.49;98829.98;226455;1260;22536;-73
2023/06/15 00:30:35;;;;;;;14.30;12.80;;;;;;;11.46;84.56;98826.89;226489;1276;22545;-74
2023/06/15 00:35:40;;;;;;;14.40;12.90;;;;;;;11.44;84.83;98828.63;226467;1272;24707;-74
2023/06/15 00:40:42;;;;;;;15.40;13.60;;;;;;;11.42;84.96;98832.46;226464;1276;22540;-74
2023/06/15 00:45:45;;;;;;;14.90;12.40;;;;;;;11.40;84.98;98830.23;226301;1273;22542;-74
2023/06/15 00:50:49;;;;;;;13.80;12.30;;;;;;;11.36;85.02;98828.41;226310;1272;22534;-74
2023/06/15 00:55:54;;;;;;;13.10;11.70;;;;;;;11.29;85.00;98827.95;226357;1276;24765;-74
2023/06/15 01:01:03;;;;;;;13.30;12.00;;;;;;;11.24;85.10;98830.65;226452;1277;22546;-74
2023/06/15 01:06:13;;;;;;;12.50;11.30;;;;;;;11.18;85.25;98833.84;226521;1273;25236;-74
2023/06/15 01:11:23;;;;;;;10.70;9.70;;;;;;;11.10;85.07;98840.81;226512;1277;22532;-75
2023/06/15 01:16:32;;;;;;;11.90;9.80;;;;;;;10.99;84.70;98840.30;226461;1272;22554;-74
2023/06/15 01:21:37;;;;;;;12.40;10.60;;;;;;;10.93;84.94;98846.89;226325;1276;22595;-74
2023/06/15 01:26:41;;;;;;;12.90;11.10;;;;;;;10.95;85.23;98854.64;226514;1274;22537;-74
2023/06/15 01:31:52;;;;;;;12.50;11.20;;;;;;;10.97;85.04;98849.65;226341;1276;22540;-75
2023/06/15 01:36:55;;;;;;;13.50;11.20;;;;;;;11.00;85.23;98850.02;226477;1274;22541;-74
2023/06/15 01:42:04;;;;;;;11.50;10.30;;;;;;;11.04;85.23;98848.04;226471;1277;22619;-75
2023/06/15 01:47:11;;;;;;;;;;;;;;;11.10;85.40;98847.01;226495;1277;22520;-75
2023/06/15 01:52:15;;;;;;;13.80;12.40;;;;;;;11.17;85.65;98838.52;226487;1276;22562;-74
2023/06/15 01:57:21;;;;;;;12.80;11.60;;;;;;;11.23;85.68;98832.46;226491;1275;22555;-75
2023/06/15 02:02:27;;;;;;;13.10;11.60;;;;;;;11.27;85.71;98834.66;226292;1277;22539;-75
2023/06/15 02:07:34;;;;;;;;;;;;;;;11.26;85.57;98831.53;226328;1277;22522;-74
2023/06/15 02:12:36;;;;;;;13.70;10.80;;;;;;;11.21;85.62;98834.36;226463;1275;22531;-75
2023/06/15 02:17:41;;;;;;;12.30;11.00;;;;;;;11.17;85.53;98831.80;226511;1275;22617;-74
2023/06/15 02:22:43;;;;;;;13.00;11.60;;;;;;;11.18;85.75;98833.92;226507;1270;22533;-74
2023/06/15 02:27:50;;;;;;;12.90;11.20;;;;;;;11.22;86.07;98839.42;226264;1277;22567;-74
2023/06/15 02:33:00;;;;;;;13.60;12.20;;;;;;;11.28;86.03;98841.50;226480;1273;22547;-74
2023/06/15 02:38:03;;;;;;;15.90;12.40;;;;;;;11.35;85.94;98843.35;226453;1270;25277;-74
2023/06/15 02:43:05;;;;;;;17.90;13.80;;;;;;;11.38;85.72;98844.52;226499;1271;22533;-74
2023/06/15 02:48:09;;;;;;;19.80;15.30;;;;;;;11.44;85.88;98840.56;226418;1277;22532;-74
2023/06/15 02:53:12;;;;;;;18.30;13.80;;;;;;;11.52;85.92;98838.02;226492;1273;22540;-75
2023/06/15 02:58:20;;;;;;;17.40;14.60;;;;;;;11.59;86.02;98842.09;226477;1273;22944;-74
2023/06/15 03:03:40;;;;;;;20.20;16.30;;;;;;;11.63;85.91;98839.70;226398;1276;22542;-74
2023/06/15 03:08:44;;;;;;;24.00;17.00;;;;;;;11.70;86.16;98837.74;226452;1276;22548;-74
2023/06/15 03:14:01;;;;;;;39.00;18.70;;;;;;;11.80;86.44;98840.85;226430;1276;22571;-75
2023/06/15 03:19:15;;;;;;;27.80;18.50;;;;;;;11.89;86.32;98846.92;226427;1275;22531;-74
2023/06/15 03:24:17;;;;;;;45.20;18.30;;;;;;;11.96;86.48;98847.10;226501;1275;22540;-74
2023/06/15 03:29:26;;;;;;;27.50;18.30;;;;;;;12.03;86.35;98847.14;226449;1273;22533;-75
2023/06/15 03:34:29;;;;;;;50.60;18.70;;;;;;;12.09;86.41;98853.85;226432;1274;22587;-75
2023/06/15 03:39:32;;;;;;;26.80;18.30;;;;;;;12.16;86.41;98855.97;226478;1269;22533;-75
2023/06/15 03:44:46;;;;;;;25.40;17.20;;;;;;;12.21;86.32;98853.95;226437;1275;24283;-75
2023/06/15 03:49:49;;;;;;;27.90;17.50;;;;;;;12.25;86.17;98857.80;226476;1275;22546;-74
2023/06/15 03:55:01;;;;;;;25.50;17.40;;;;;;;12.28;86.31;98860.31;226470;1270;22533;-74
2023/06/15 04:00:09;;;;;;;28.00;17.50;;;;;;;12.29;86.05;98858.70;226505;1275;24274;-74
2023/06/15 04:05:19;;;;;;;24.60;16.90;;;;;;;12.29;85.93;98862.65;226482;1277;22651;-74
2023/06/15 04:10:46;;;;;;;27.70;18.20;;;;;;;12.32;85.98;98864.98;226404;1277;22533;-75
2023/06/15 04:15:50;;;;;;;23.20;18.30;;;;;;;12.45;86.26;98863.73;226488;1273;22542;-74
2023/06/15 04:20:57;;;;;;;22.10;18.70;;;;;;;12.65;86.58;98865.38;226336;1267;22538;-74
2023/06/15 04:26:09;;;;;;;24.10;16.60;;;;;;;12.92;86.76;98862.98;226538;1271;24787;-74
2023/06/15 04:31:44;;;;;;;;;;;;;;;;;;;;;
2023/06/15 04:37:05;;;;;;;17.70;14.40;;;;;;;13.24;85.74;98875.61;226608;1276;22668;-75
2023/06/15 04:42:18;;;;;;;19.40;15.70;;;;;;;13.27;85.53;98877.87;226505;1270;22557;-75
2023/06/15 04:47:32;;;;;;;19.60;15.80;;;;;;;13.30;85.09;98880.98;226499;1263;22595;-75
2023/06/15 04:52:41;;;;;;;18.20;15.80;;;;;;;13.25;85.06;98878.84;226609;1276;22571;-74
2023/06/15 04:57:49;;;;;;;29.60;15.80;;;;;;;13.21;85.00;98882.60;226339;1277;22568;-74
2023/06/15 05:02:52;;;;;;;17.80;15.50;;;;;;;13.12;84.95;98884.59;226495;1277;22536;-74
2023/06/15 05:07:58;;;;;;;18.40;14.70;;;;;;;13.18;85.29;98887.46;226473;1275;22533;-74
2023/06/15 05:13:00;;;;;;;18.60;14.70;;;;;;;13.24;85.29;98887.86;226538;1273;25335;-74
2023/06/15 05:18:03;;;;;;;16.40;13.90;;;;;;;13.39;85.36;98887.23;226545;1273;22532;-74
2023/06/15 05:23:15;;;;;;;15.40;13.70;;;;;;;13.63;85.28;98890.05;226485;1277;22534;-74
2023/06/15 05:28:23;;;;;;;14.40;12.90;;;;;;;13.84;85.12;98889.66;226519;1277;22552;-74
2023/06/15 05:33:29;;;;;;;15.60;12.30;;;;;;;14.25;84.89;98890.58;226489;1273;22535;-75
2023/06/15 05:38:32;;;;;;;13.40;12.00;;;;;;;14.47;83.81;98895.98;226502;1272;24277;-74
2023/06/15 05:43:35;;;;;;;16.40;12.90;;;;;;;14.60;83.83;98899.77;225874;1277;22577;-75
2023/06/15 05:48:37;;;;;;;15.80;13.60;;;;;;;14.79;83.65;98908.13;226077;1258;22561;-74
2023/06/15 05:53:43;;;;;;;17.10;15.00;;;;;;;14.80;83.29;98904.02;226074;1278;22540;-75
2023/06/15 05:58:45;;;;;;;17.40;15.20;;;;;;;14.82;83.18;98905.41;225710;1275;22536;-75
2023/06/15 06:03:48;;;;;;;17.30;15.20;;;;;;;14.93;83.50;98912.23;225667;1266;24257;-75
2023/06/15 06:08:50;;;;;;;21.30;18.60;;;;;;;15.09;82.99;98917.76;225865;1264;23124;-75
2023/06/15 06:13:53;;;;;;;28.50;24.10;;;;;;;15.16;82.42;98918.68;225580;1259;22544;-75
2023/06/15 06:18:56;;;;;;;28.80;23.90;;;;;;;15.09;81.92;98922.25;223207;1260;3184236;-74
2023/06/15 06:24:02;;;;;;;37.80;32.10;;;;;;;15.02;82.07;98922.56;225787;1274;22552;-75
2023/06/15 06:29:05;;;;;;;36.90;30.40;;;;;;;15.25;82.67;98921.45;225691;1271;22690;-75
2023/06/15 06:34:07;;;;;;;36.20;29.60;;;;;;;15.74;82.25;98921.29;225770;1260;23044;-76
2023/06/15 06:39:12;;;;;;;37.60;31.40;;;;;;;16.07;81.25;98921.16;225590;1271;22546;-75
2023/06/15 06:44:16;;;;;;;33.90;28.70;;;;;;;16.12;80.20;98925.67;225597;1271;22699;-75
2023/06/15 06:49:20;;;;;;;25.20;22.60;;;;;;;16.50;80.90;98934.35;225617;1260;22556;-75
2023/06/15 06:54:36;;;;;;;;;;;;;;;;;;;;;
2023/06/15 06:59:38;;;;;;;21.30;19.00;;;;;;;17.11;78.96;98928.23;225081;1271;22533;-75
2023/06/15 07:04:52;;;;;;;21.10;18.90;;;;;;;17.36;78.64;98924.83;224784;1264;22536;-75
2023/06/15 07:09:55;;;;;;;23.30;19.90;;;;;;;17.78;78.64;98916.73;224803;1255;24018;-75
2023/06/15 07:14:59;;;;;;;24.90;21.80;;;;;;;17.94;77.49;98918.20;224844;1259;22539;-76
2023/06/15 07:20:05;;;;;;;23.10;20.40;;;;;;;17.83;76.77;98917.06;224814;1265;22558;-75
2023/06/15 07:25:13;;;;;;;19.60;17.60;;;;;;;17.87;76.65;98916.52;224792;1270;22555;-74
2023/06/15 07:30:18;;;;;;;18.40;16.50;;;;;;;18.00;75.41;98917.47;224723;1264;22547;-76
2023/06/15 07:35:21;;;;;;;16.00;14.40;;;;;;;18.15;75.21;98915.39;224756;1264;23266;-76
2023/06/15 07:40:24;;;;;;;18.50;15.60;;;;;;;18.27;74.79;98915.21;224804;1265;26091;-75
2023/06/15 07:45:30;;;;;;;16.10;13.40;;;;;;;18.49;74.57;98914.27;224890;1273;25667;-75
2023/06/15 07:50:35;;;;;;;16.70;13.30;;;;;;;18.65;73.48;98917.89;224841;1271;22527;-75
2023/06/15 07:55:50;;;;;;;15.50;13.70;;;;;;;18.75;73.41;98911.71;224837;1271;22608;-76
2023/06/15 08:01:01;;;;;;;17.60;15.10;;;;;;;18.97;73.23;98910.26;224796;1265;25411;-76
2023/06/15 08:06:04;;;;;;;15.10;13.00;;;;;;;19.16;72.37;98908.52;224815;1271;22520;-75
2023/06/15 08:11:09;;;;;;;15.90;13.50;;;;;;;19.10;71.63;98914.11;224912;1272;22592;-76
2023/06/15 08:16:12;;;;;;;20.00;16.80;;;;;;;19.35;72.01;98914.23;224862;1265;22569;-75
2023/06/15 08:21:41;;;;;;;19.90;15.60;;;;;;;19.76;71.00;98915.27;224641;1275;23210;-75
2023/06/15 08:26:54;;;;;;;;;;;;;;;19.94;69.99;98912.83;224742;1278;22506;-76
2023/06/15 08:32:12;;;;;;;14.20;12.70;;;;;;;20.09;69.54;98910.46;224695;1272;22627;-76
2023/06/15 08:37:18;;;;;;;16.00;14.50;;;;;;;20.32;68.25;98910.96;224754;1274;22622;-77
2023/06/15 08:42:25;;;;;;;15.70;13.90;;;;;;;20.63;68.58;98913.85;224698;1275;22551;-74
2023/06/15 08:47:30;;;;;;;15.10;13.60;;;;;;;21.10;67.93;98910.31;224722;1278;25134;-74
2023/06/15 08:52:35;;;;;;;12.40;11.20;;;;;;;21.38;66.50;98906.59;227794;1264;22216;-75
2023/06/15 08:57:38;;;;;;;16.80;14.80;;;;;;;21.32;65.07;98912.34;227717;1264;22845;-74
2023/06/15 09:02:46;;;;;;;17.50;15.80;;;;;;;21.04;64.84;98906.16;227803;1274;22310;-76
2023/06/15 09:07:51;;;;;;;16.30;14.60;;;;;;;21.11;65.73;98901.67;227858;1260;22172;-75
2023/06/15 09:12:58;;;;;;;15.50;14.00;;;;;;;21.13;64.29;98899.06;227760;1268;22149;-76
2023/06/15 09:18:02;;;;;;;15.80;14.20;;;;;;;21.02;64.45;98894.65;227766;1266;22190;-76
2023/06/15 09:23:10;;;;;;;15.50;14.00;;;;;;;21.23;64.79;98894.99;227780;1275;22195;-76
2023/06/15 09:28:13;;;;;;;15.30;12.40;;;;;;;21.48;64.42;98893.29;227842;1271;22112;-76
2023/06/15 09:33:25;;;;;;;14.00;12.60;;;;;;;21.74;64.26;98884.14;227881;1263;22143;-84
2023/06/15 09:38:33;;;;;;;12.40;11.20;;;;;;;21.71;62.75;98882.72;227813;1275;22765;-76
2023/06/15 09:43:40;;;;;;;10.50;9.60;;;;;;;21.49;62.14;98882.56;227781;1277;22162;-76
2023/06/15 09:48:44;;;;;;;10.70;9.70;;;;;;;21.48;61.97;98878.02;227838;1277;22060;-76
2023/06/15 09:53:47;;;;;;;11.80;10.10;;;;;;;21.77;62.30;98871.79;227762;1278;22680;-75
2023/06/15 09:58:49;;;;;;;9.60;8.70;;;;;;;22.27;62.35;98874.38;227973;1267;22315;-77
2023/06/15 10:03:52;;;;;;;9.80;8.90;;;;;;;22.83;61.16;98872.16;227717;1272;22161;-76
2023/06/15 10:08:59;;;;;;;9.60;8.20;;;;;;;23.13;59.88;98870.72;227882;1267;22125;-75
2023/06/15 10:14:09;;;;;;;11.40;10.30;;;;;;;23.09;57.97;98864.02;227818;1271;22172;-76
2023/06/15 10:19:15;;;;;;;8.80;7.90;;;;;;;23.00;58.58;98858.89;226825;1273;22558;-76
2023/06/15 10:24:22;;;;;;;7.80;6.90;;;;;;;23.08;58.48;98860.80;225023;1278;22537;-76
2023/06/15 10:29:36;;;;;;;7.10;6.40;;;;;;;23.13;58.28;98865.34;225111;1278;25093;-75
2023/06/15 10:34:50;;;;;;;6.40;5.70;;;;;;;23.13;57.80;98861.55;225099;1274;22600;-76
2023/06/15 10:39:57;;;;;;;8.00;6.30;;;;;;;23.11;57.80;98862.53;225072;1256;22561;-75
2023/06/15 10:45:22;;;;;;;;;;;;;;;23.06;57.87;98865.54;225136;1278;25265;-76
2023/06/15 10:50:37;;;;;;;7.00;6.40;;;;;;;23.06;57.73;98867.75;224996;1268;23112;-76
2023/06/15 10:55:39;;;;;;;6.90;6.40;;;;;;;23.29;57.75;98858.94;225011;1274;22550;-75
2023/06/15 11:00:44;;;;;;;7.50;6.60;;;;;;;23.64;57.49;98857.45;225192;1275;22547;-75
2023/06/15 11:06:03;;;;;;;8.00;7.30;;;;;;;23.57;56.32;98852.94;224980;1275;22533;-74
2023/06/15 11:11:09;;;;;;;8.80;8.00;;;;;;;23.62;56.44;98846.94;225006;1260;22650;-74
2023/06/15 11:16:13;;;;;;;7.50;6.90;;;;;;;23.47;56.13;98840.82;227822;1271;22273;-75
2023/06/15 11:21:26;;;;;;;8.40;7.60;;;;;;;23.41;56.17;98844.17;227737;1261;22544;-73
2023/06/15 11:26:29;;;;;;;8.10;7.20;;;;;;;23.52;56.59;98842.84;225390;1273;22542;-73
2023/06/15 11:31:33;;;;;;;9.70;8.80;;;;;;;23.72;56.19;98843.80;225453;1274;22973;-72
2023/06/15 11:36:36;;;;;;;9.70;8.90;;;;;;;23.82;55.73;98841.24;225298;1275;23332;-74
2023/06/15 11:41:38;;;;;;;10.20;8.40;;;;;;;23.91;55.57;98843.92;225599;1268;22540;-74
2023/06/15 11:46:40;;;;;;;9.00;8.20;;;;;;;23.87;55.04;98838.21;225505;1274;22544;-71
2023/06/15 11:51:46;;;;;;;9.30;8.40;;;;;;;23.79;55.01;98833.59;225470;1260;22536;-75
2023/06/15 11:56:49;;;;;;;9.30;8.40;;;;;;;23.78;55.08;98829.59;225314;1276;22555;-72
2023/06/15 12:01:57;;;;;;;9.20;8.40;;;;;;;23.78;54.53;98822.67;225684;1268;22566;-73
2023/06/15 12:07:04;;;;;;;10.50;9.50;;;;;;;23.70;53.48;98813.37;225549;1274;22574;-73
2023/06/15 12:12:10;;;;;;;9.10;8.20;;;;;;;23.59;53.49;98809.55;225811;1275;22692;-72
2023/06/15 12:17:12;;;;;;;9.40;8.50;;;;;;;23.82;52.71;98804.05;225358;1274;22630;-75
2023/06/15 12:22:15;;;;;;;7.70;6.80;;;;;;;24.00;52.72;98797.64;225319;1277;22598;-72
2023/06/15 12:27:42;;;;;;;6.50;5.90;;;;;;;24.03;52.07;98790.88;225631;1264;23180;-74
2023/06/15 12:32:49;;;;;;;6.20;5.70;;;;;;;24.02;52.16;98784.75;225440;1261;24855;-74
2023/06/15 12:37:56;;;;;;;6.70;6.10;;;;;;;24.02;52.21;98781.45;225592;1269;22543;-76
2023/06/15 12:43:00;;;;;;;6.00;5.50;;;;;;;24.04;51.87;98780.89;225455;1260;22523;-72
2023/06/15 12:48:04;;;;;;;6.10;5.50;;;;;;;23.94;51.46;98776.39;225612;1263;24288;-72
2023/06/15 12:53:07;;;;;;;7.70;7.00;;;;;;;23.64;51.21;98771.71;225546;1273;24246;-72
2023/06/15 12:58:09;;;;;;;7.20;6.50;;;;;;;23.41;52.39;98774.38;225578;1270;22630;-72
2023/06/15 13:03:12;;;;;;;7.20;6.50;;;;;;;23.35;52.46;98764.55;225393;1263;22560;-73
2023/06/15 13:08:14;;;;;;;6.60;6.00;;;;;;;23.25;52.37;98759.39;225420;1274;22703;-73
2023/06/15 13:13:16;;;;;;;6.20;5.70;;;;;;;23.28;52.65;98759.27;225484;1275;22594;-73
2023/06/15 13:18:19;;;;;;;6.20;5.30;;;;;;;23.44;52.14;98758.83;225383;1274;22581;-72
2023/06/15 13:23:24;;;;;;;5.80;5.30;;;;;;;23.55;51.85;98754.48;225483;1274;24152;-72
2023/06/15 13:28:26;;;;;;;6.10;5.50;;;;;;;23.57;51.52;98750.05;225361;1263;22899;-73
2023/06/15 13:33:28;;;;;;;6.10;5.60;;;;;;;23.81;51.64;98748.20;225357;1274;22567;-72
2023/06/15 13:38:30;;;;;;;7.00;6.40;;;;;;;24.15;52.03;98750.18;225635;1272;25397;-73
2023/06/15 13:43:32;;;;;;;6.80;6.10;;;;;;;24.30;50.99;98745.12;225616;1268;22573;-72
2023/06/15 13:48:34;;;;;;;6.70;6.10;;;;;;;23.99;50.80;98747.98;225458;1274;23011;-73
2023/06/15 13:53:38;;;;;;;6.70;6.00;;;;;;;23.70;51.47;98743.86;225640;1274;22545;-73
2023/06/15 13:58:40;;;;;;;6.50;5.70;;;;;;;23.52;51.67;98741.04;225490;1273;22503;-72
2023/06/15 14:03:44;;;;;;;6.20;5.60;;;;;;;23.44;52.11;98737.20;225445;1274;22542;-73
2023/06/15 14:08:48;;;;;;;6.40;5.90;;;;;;;23.21;52.18;98740.73;226121;1274;22572;-72
2023/06/15 14:13:52;;;;;;;7.10;5.90;;;;;;;22.89;53.62;98743.37;226177;1277;22541;-71
2023/06/15 14:18:56;;;;;;;7.10;5.80;;;;;;;22.52;54.63;98739.52;226111;1273;22925;-72
2023/06/15 14:24:04;;;;;;;6.60;5.90;;;;;;;22.15;54.89;98737.28;226068;1278;22611;-73
2023/06/15 14:29:09;;;;;;;6.10;5.50;;;;;;;22.08;55.82;98734.35;226309;1276;22575;-72
2023/06/15 14:34:16;;;;;;;5.80;5.30;;;;;;;22.12;56.17;98731.78;226418;1275;22612;-73
2023/06/15 14:39:19;;;;;;;5.80;5.30;;;;;;;22.26;56.28;98726.98;226246;1277;22536;-72
2023/06/15 14:44:24;;;;;;;5.60;5.10;;;;;;;22.35;56.25;98723.23;226485;1275;22541;-71
2023/06/15 14:49:26;;;;;;;6.70;5.20;;;;;;;22.35;56.28;98726.30;226407;1276;22545;-72
2023/06/15 14:54:29;;;;;;;7.40;5.30;;;;;;;22.34;56.64;98716.39;226413;1278;22769;-73
2023/06/15 14:59:32;;;;;;;5.60;4.90;;;;;;;22.35;56.72;98716.45;226408;1275;22545;-71
2023/06/15 15:04:35;;;;;;;5.90;4.70;;;;;;;22.37;56.60;98722.48;226424;1277;23038;-73
2023/06/15 15:09:46;;;;;;;11.30;5.00;;;;;;;22.37;56.18;98721.09;226450;1276;22524;-73
2023/06/15 15:14:51;;;;;;;6.50;5.00;;;;;;;22.41;56.25;98717.75;226493;1277;22578;-71
2023/06/15 15:19:54;;;;;;;5.00;4.40;;;;;;;22.47;56.07;98719.22;226467;1276;22536;-73
2023/06/15 15:24:56;;;;;;;5.80;5.30;;;;;;;22.55;55.88;98713.95;226348;1277;22545;-72
2023/06/15 15:29:59;;;;;;;5.10;4.70;;;;;;;22.56;55.53;98708.84;226446;1277;22537;-71
2023/06/15 15:35:03;;;;;;;4.90;4.50;;;;;;;22.55;55.82;98709.48;226391;1275;22538;-72
2023/06/15 15:40:10;;;;;;;6.10;5.10;;;;;;;22.53;55.51;98705.23;226300;1276;23172;-71
2023/06/15 15:45:15;;;;;;;9.00;5.60;;;;;;;22.54;55.26;98702.48;226477;1275;25324;-72
2023/06/15 15:50:17;;;;;;;8.50;5.80;;;;;;;22.59;55.13;98701.56;226445;1277;22557;-73
2023/06/15 15:55:21;;;;;;;5.70;5.10;;;;;;;22.61;55.03;98699.89;226320;1276;22524;-71
2023/06/15 16:00:25;;;;;;;6.30;5.40;;;;;;;22.61;54.91;98696.34;226419;1278;22546;-73
2023/06/15 16:05:37;;;;;;;5.60;5.10;;;;;;;22.68;55.13;98697.44;226279;1277;22562;-74
2023/06/15 16:10:48;;;;;;;6.30;5.70;;;;;;;22.76;54.72;98698.90;226467;1278;22666;-73
2023/06/15 16:15:51;;;;;;;6.10;5.60;;;;;;;22.71;54.59;98698.55;226387;1276;22553;-71
2023/06/15 16:21:13;;;;;;;5.80;5.30;;;;;;;22.51;54.79;98700.75;226428;1278;24409;-73
2023/06/15 16:26:16;;;;;;;5.40;5.00;;;;;;;22.28;55.32;98704.63;226399;1276;25395;-71
2023/06/15 16:31:21;;;;;;;5.20;4.70;;;;;;;22.17;55.79;98706.27;226434;1273;25233;-73
2023/06/15 16:36:24;;;;;;;4.90;4.50;;;;;;;22.10;55.58;98710.45;226444;1264;22557;-72
2023/06/15 16:41:26;;;;;;;7.10;5.20;;;;;;;22.03;55.78;98707.89;226447;1278;22554;-72
2023/06/15 16:46:29;;;;;;;4.50;4.10;;;;;;;21.99;55.66;98706.58;226433;1276;22561;-73
2023/06/15 16:51:32;;;;;;;7.10;4.50;;;;;;;21.92;55.05;98709.34;226499;1278;22674;-71
2023/06/15 16:56:34;;;;;;;5.00;4.50;;;;;;;21.87;54.98;98710.98;226176;1277;24231;-72
2023/06/15 17:01:37;;;;;;;4.70;4.30;;;;;;;21.81;54.87;98716.48;226432;1272;22541;-72
2023/06/15 17:06:40;;;;;;;5.00;4.50;;;;;;;21.80;55.37;98715.69;226287;1277;22572;-72
2023/06/15 17:11:45;;;;;;;4.50;4.10;;;;;;;22.48;56.04;98714.73;226427;1276;22553;-70
2023/06/15 17:16:53;;;;;;;6.00;5.30;;;;;;;23.83;55.52;98715.85;226445;1278;25398;-71
2023/06/15 17:21:55;;;;;;;6.10;5.40;;;;;;;24.98;53.74;98711.47;226266;1277;22538;-72
2023/06/15 17:26:57;;;;;;;5.50;5.00;;;;;;;25.98;52.51;98713.71;226244;1273;22552;-71
2023/06/15 17:32:09;;;;;;;6.40;5.80;;;;;;;26.72;51.16;98715.46;226226;1278;22534;-71
2023/06/15 17:37:12;;;;;;;;;;;;;;;27.13;49.94;98712.67;226304;1273;22575;-72
2023/06/15 17:42:18;;;;;;;6.10;5.50;;;;;;;27.11;49.49;98720.73;226237;1277;22548;-71
2023/06/15 17:47:20;;;;;;;5.70;5.20;;;;;;;27.41;49.24;98723.45;226154;1274;22564;-72
2023/06/15 17:52:23;;;;;;;5.70;5.30;;;;;;;27.66;48.81;98724.64;226221;1273;22643;-72
2023/06/15 17:57:28;;;;;;;5.50;5.10;;;;;;;26.87;47.99;98729.77;226322;1276;22547;-72
2023/06/15 18:02:35;;;;;;;6.00;5.50;;;;;;;25.75;48.14;98733.67;226137;1277;22549;-72
2023/06/15 18:07:40;;;;;;;6.00;5.10;;;;;;;24.52;48.98;98730.33;226218;1276;22532;-73
2023/06/15 18:12:52;;;;;;;5.80;5.00;;;;;;;23.53;50.22;98728.02;226217;1278;22547;-73
2023/06/15 18:17:54;;;;;;;5.70;4.50;;;;;;;22.74;51.11;98723.94;226059;1260;190418;-72
2023/06/15 18:22:56;;;;;;;7.00;4.90;;;;;;;22.06;52.05;98724.20;226040;1277;25693;-73
2023/06/15 18:28:19;;;;;;;6.30;4.40;;;;;;;21.57;53.18;98728.80;225538;1281;24392;-71
2023/06/15 18:33:23;;;;;;;5.30;4.40;;;;;;;21.16;53.77;98727.34;225751;1267;22570;-73
2023/06/15 18:38:31;;;;;;;6.50;4.20;;;;;;;20.82;54.43;98726.52;225781;1280;22571;-72
2023/06/15 18:43:33;;;;;;;5.10;3.90;;;;;;;20.49;54.78;98730.76;225728;1281;22547;-72
2023/06/15 18:48:36;;;;;;;4.70;4.10;;;;;;;20.15;55.61;98731.51;225612;1279;22540;-73
2023/06/15 18:53:43;;;;;;;5.50;4.00;;;;;;;19.82;55.90;98735.23;225638;1279;22731;-71
2023/06/15 18:58:46;;;;;;;6.30;4.40;;;;;;;19.52;56.38;98738.83;225956;1278;23248;-71
2023/06/15 19:03:52;;;;;;;6.10;4.60;;;;;;;19.20;56.75;98742.21;226229;1278;24250;-71
2023/06/15 19:09:01;;;;;;;6.10;5.10;;;;;;;18.92;57.20;98741.10;226279;1272;25278;-71
2023/06/15 19:14:07;;;;;;;5.60;4.40;;;;;;;18.64;57.71;98742.70;226386;1274;22534;-73
2023/06/15 19:19:10;;;;;;;16.80;9.50;;;;;;;18.37;58.09;98750.64;226092;1278;22538;-72
2023/06/15 19:24:12;;;;;;;25.40;14.20;;;;;;;18.13;58.51;98756.59;226120;1273;22541;-71
2023/06/15 19:29:18;;;;;;;25.60;12.40;;;;;;;17.90;59.02;98760.83;225991;1277;22552;-71
2023/06/15 19:34:38;;;;;;;19.60;10.60;;;;;;;17.69;59.37;98766.04;225879;1279;25277;-71
2023/06/15 19:39:44;;;;;;;10.30;6.90;;;;;;;17.48;60.05;98765.88;225766;1279;22550;-71
2023/06/15 19:44:47;;;;;;;8.40;5.40;;;;;;;17.25;60.38;98767.70;225897;1279;22714;-71
2023/06/15 19:49:50;;;;;;;6.80;5.90;;;;;;;17.06;61.01;98770.60;225874;1278;22544;-71
2023/06/15 19:54:53;;;;;;;7.50;5.60;;;;;;;16.91;62.06;98780.69;226020;1276;22528;-72
2023/06/15 19:59:56;;;;;;;6.20;5.50;;;;;;;16.78;62.52;98780.05;226110;1278;22540;-72
2023/06/15 20:04:59;;;;;;;6.60;5.60;;;;;;;16.69;62.68;98783.48;226262;1265;22566;-70
2023/06/15 20:10:02;;;;;;;8.60;5.90;;;;;;;16.60;63.19;98783.17;226192;1277;23011;-71
2023/06/15 20:15:05;;;;;;;11.80;6.90;;;;;;;16.50;63.70;98787.69;226174;1277;22566;-72
2023/06/15 20:20:08;;;;;;;8.50;6.30;;;;;;;16.42;64.25;98785.95;226403;1270;22560;-70
2023/06/15 20:25:10;;;;;;;9.40;6.30;;;;;;;16.35;64.57;98785.63;226221;1278;22549;-71
2023/06/15 20:30:12;;;;;;;7.60;5.90;;;;;;;16.27;65.00;98782.53;226383;1271;22569;-71
2023/06/15 20:35:15;;;;;;;9.70;6.10;;;;;;;16.19;65.22;98779.27;226190;1278;22557;-70
2023/06/15 20:40:18;;;;;;;8.70;5.80;;;;;;;16.10;65.64;98775.27;226165;1276;24396;-70
2023/06/15 20:45:20;;;;;;;6.30;5.20;;;;;;;16.00;65.97;98773.23;226110;1274;22552;-70
2023/06/15 20:50:25;;;;;;;8.30;5.30;;;;;;;15.88;66.33;98769.71;226298;1278;24289;-71
2023/06/15 20:55:31;;;;;;;6.40;5.80;;;;;;;15.77;66.66;98763.67;226180;1273;22552;-75
2023/06/15 21:00:35;;;;;;;8.00;5.40;;;;;;;15.65;67.05;98764.27;226225;1276;22565;-73
2023/06/15 21:05:39;;;;;;;6.90;6.00;;;;;;;15.51;67.28;98765.11;226150;1276;22539;-72
2023/06/15 21:10:46;;;;;;;7.50;5.70;;;;;;;15.38;67.89;98762.25;226443;1278;22549;-71
2023/06/15 21:15:51;;;;;;;8.30;6.50;;;;;;;15.25;68.30;98759.01;226328;1276;22546;-71
2023/06/15 21:20:53;;;;;;;5.90;5.40;;;;;;;15.11;68.65;98753.42;226142;1277;22547;-72
2023/06/15 21:25:59;;;;;;;7.90;6.20;;;;;;;14.99;69.17;98751.44;226107;1278;22611;-71
2023/06/15 21:31:03;;;;;;;10.00;6.50;;;;;;;14.82;69.46;98754.73;226206;1276;22540;-71
2023/06/15 21:36:06;;;;;;;11.60;8.30;;;;;;;14.69;70.29;98756.73;226165;1278;22539;-72
2023/06/15 21:41:14;;;;;;;10.40;8.70;;;;;;;14.58;71.07;98755.64;226191;1277;22540;-72
2023/06/15 21:46:17;;;;;;;10.30;8.10;;;;;;;14.48;71.44;98754.66;226141;1276;22548;-71
2023/06/15 21:51:27;;;;;;;8.60;7.70;;;;;;;14.39;71.40;98753.30;226153;1278;22580;-71
2023/06/15 21:56:31;;;;;;;8.90;7.20;;;;;;;14.32;71.65;98748.21;226191;1273;22539;-71
2023/06/15 22:01:38;;;;;;;7.80;7.00;;;;;;;14.23;71.92;98748.38;226114;1278;22547;-70
2023/06/15 22:06:41;;;;;;;10.30;8.40;;;;;;;14.14;72.11;98750.30;226376;1278;22550;-71
2023/06/15 22:11:48;;;;;;;9.20;7.20;;;;;;;14.04;72.37;98748.96;226149;1261;22543;-71
2023/06/15 22:16:52;;;;;;;11.30;8.10;;;;;;;13.95;72.61;98748.30;226230;1278;22551;-70
2023/06/15 22:21:55;;;;;;;8.70;7.80;;;;;;;13.87;73.06;98750.49;226231;1273;22551;-73
2023/06/15 22:27:06;;;;;;;9.10;8.10;;;;;;;13.78;73.17;98745.30;226357;1278;22548;-72
2023/06/15 22:32:09;;;;;;;11.30;8.30;;;;;;;13.70;73.30;98742.90;226176;1276;23303;-71
2023/06/15 22:37:13;;;;;;;12.00;9.00;;;;;;;13.60;73.80;98741.96;226341;1270;22982;-71
2023/06/15 22:42:19;;;;;;;11.50;8.70;;;;;;;13.51;73.85;98734.06;226323;1278;22533;-71
2023/06/15 22:47:25;;;;;;;9.60;7.80;;;;;;;13.42;74.07;98734.48;226307;1271;22562;-71
2023/06/15 22:52:32;;;;;;;9.70;8.70;;;;;;;13.35;74.66;98730.62;226365;1274;22550;-71
2023/06/15 22:57:35;;;;;;;11.30;8.60;;;;;;;13.29;75.00;98728.80;226290;1274;22562;-70
2023/06/15 23:02:40;;;;;;;9.80;8.80;;;;;;;13.21;75.14;98723.94;226334;1278;24268;-72
2023/06/15 23:07:58;;;;;;;10.80;8.50;;;;;;;13.13;75.25;98721.27;226297;1275;22543;-71
2023/06/15 23:13:08;;;;;;;10.60;8.50;;;;;;;13.05;75.41;98721.71;226339;1278;25201;-71
2023/06/15 23:18:11;;;;;;;9.60;8.00;;;;;;;12.98;75.67;98719.32;226355;1278;22554;-70
2023/06/15 23:23:17;;;;;;;10.80;8.90;;;;;;;12.90;75.89;98720.10;226182;1276;22564;-70
2023/06/15 23:28:23;;;;;;;10.60;8.60;;;;;;;12.84;76.13;98720.62;226098;1278;22629;-70
2023/06/15 23:33:35;;;;;;;10.20;8.10;;;;;;;12.76;76.46;98713.11;226345;1271;22551;-70